首页
METAR-TAF:

METAR-TAF

机场 :

Mountain Home, 爱达荷州, 美国

纬度: 43-03N, 经度: 115-52W, 海拔: 913米

当前天气观测

该预报发布于19分钟前的09:55 UTC
风速11节,风向西转西北
温度 10°C
湿度 87%
气压 1007 hPa
能見度: 14.5公里
散云层高于5500英尺
多云层高于8000英尺
阴天层高于11000英尺

METAR: KMUO 250955Z 29011KT 9SM SCT055 BKN080 OVC110 10/08 A2973 RMK AO2A RAE46 SLP053 P0000 T01040082 $

时间: 04:14 (10:14 UTC)

预报

该预报发布于28小时和29分钟前的05:45 UTC
预报有效从24日的 05点(UTC)到 25日的 08点(UTC)
风速6节,风向多变
能见度10公里或以上
天空无云
成为
从 24日的 14点(UTC)到 24日的 15点(UTC)
风速10节,风向东转东南,有时为15节阵风
能见度10公里或以上
天空无云
成为
从 24日的 23点(UTC)到 24日的 24点(UTC)
风速6节,风向多变
能見度: 2810
多云层高于11000英尺

TAF: KMUO 240545Z 2405/2508 VRB06KT 9999 SKC QNH2995INS BECMG 2414/2415 12010G15KT 9999 SKC QNH2972INS BECMG 2423/2424 VRB06KT 9999 BKN110 QNH2964INS TX21/2422Z TN05/2412Z LAST NO AMDS AFT 2406 NEXT 2810

超过4000个机场的气象观测和天气预报(METAR&TAF报告)。

可查询的气象台以黄色和红色小点在地图上表示。

将鼠标移到小点上方,可查看气象台名称。

然后点击查看天气观测和预报。

如需切换地图:点击带黑十字的绿色按钮放大地图;点击带横线的绿色按钮缩小地图;或者点击绿色箭头查看邻近地区的地图。


METAR-TAF: